Time;durP1;ratioP1;P1;durP2;ratioP2;P2;SDS_P1;SDS_P2;PMS_P1;PMS_P2;Temp;Humidity;BMP_temperature;BMP_pressure;BME280_temperature;BME280_humidity;BME280_pressure;Samples;Min_cycle;Max_cycle;Signal;HPM_P1;HPM_P2
2021/04/11 00:00:05;;;;;;;9.70;6.57;;;;;;;;;;5092711;28;20484;-55
2021/04/11 00:02:31;;;;;;;12.93;6.70;;;;;;;;;;5092406;28;20438;-54
2021/04/11 00:04:57;;;;;;;8.13;6.30;;;;;;;;;;5092656;28;20408;-54
2021/04/11 00:07:23;;;;;;;7.60;5.80;;;;;;;;;;5091600;28;20400;-54
2021/04/11 00:09:49;;;;;;;7.10;6.40;;;;;;;;;;5092534;28;20466;-55
2021/04/11 00:12:15;;;;;;;6.47;5.87;;;;;;;;;;5092446;28;20406;-54
2021/04/11 00:14:41;;;;;;;6.90;6.20;;;;;;;;;;5092557;28;20396;-54
2021/04/11 00:17:07;;;;;;;10.07;6.50;;;;;;;;;;5092087;28;20507;-55
2021/04/11 00:19:33;;;;;;;10.57;6.60;;;;;;;;;;5092390;28;20433;-54
2021/04/11 00:21:59;;;;;;;8.43;6.63;;;;;;;;;;5092425;28;20400;-55
2021/04/11 00:24:25;;;;;;;7.13;6.33;;;;;;;;;;5092177;28;20403;-54
2021/04/11 00:26:51;;;;;;;6.80;6.07;;;;;;;;;;5092155;28;20912;-55
2021/04/11 00:29:18;;;;;;;8.10;6.47;;;;;;;;;;5091919;28;20992;-55
2021/04/11 00:31:43;;;;;;;8.00;6.40;;;;;;;;;;5092100;28;20398;-55
2021/04/11 00:34:09;;;;;;;7.10;6.40;;;;;;;;;;5091956;28;20479;-55
2021/04/11 00:36:35;;;;;;;7.40;6.30;;;;;;;;;;5091916;28;20439;-55
2021/04/11 00:39:01;;;;;;;14.80;6.50;;;;;;;;;;5091839;28;20422;-56
2021/04/11 00:41:32;;;;;;;7.97;6.70;;;;;;;;;;5092112;28;20404;-55
2021/04/11 00:43:59;;;;;;;9.10;6.30;;;;;;;;;;5091845;28;20486;-53
2021/04/11 00:46:30;;;;;;;10.13;6.70;;;;;;;;;;5091569;28;20610;-55
2021/04/11 00:48:56;;;;;;;6.63;6.03;;;;;;;;;;5091798;28;20538;-55
2021/04/11 00:51:27;;;;;;;8.73;6.00;;;;;;;;;;5091921;28;20881;-56
2021/04/11 00:53:56;;;;;;;7.50;6.80;;;;;;;;;;5091796;28;20943;-54
2021/04/11 00:56:22;;;;;;;8.60;6.07;;;;;;;;;;5091403;28;20436;-55
2021/04/11 00:58:48;;;;;;;8.10;6.00;;;;;;;;;;5091534;28;20446;-56
2021/04/11 01:01:14;;;;;;;14.60;7.00;;;;;;;;;;5091208;28;21222;-56
2021/04/11 01:03:40;;;;;;;6.50;5.77;;;;;;;;;;5091053;28;20425;-55
2021/04/11 01:06:09;;;;;;;7.77;6.10;;;;;;;;;;5090296;28;20407;-55
2021/04/11 01:08:36;;;;;;;6.90;5.83;;;;;;;;;;5090853;28;20500;-54
2021/04/11 01:11:13;;;;;;;6.87;6.20;;;;;;;;;;5091352;28;20481;-56
2021/04/11 01:13:51;;;;;;;7.50;6.70;;;;;;;;;;5091502;28;20404;-54
2021/04/11 01:16:18;;;;;;;7.90;6.90;;;;;;;;;;5091063;28;20406;-55
2021/04/11 01:18:44;;;;;;;6.43;5.83;;;;;;;;;;5091359;28;20519;-55
2021/04/11 01:21:36;;;;;;;6.80;5.93;;;;;;;;;;5091369;28;20400;-55
2021/04/11 01:24:23;;;;;;;6.70;6.10;;;;;;;;;;5060655;28;20422;-56
2021/04/11 01:26:50;;;;;;;11.40;6.50;;;;;;;;;;5091120;28;20902;-55
2021/04/11 01:29:16;;;;;;;8.47;6.33;;;;;;;;;;5091250;28;20461;-55
2021/04/11 01:31:43;;;;;;;7.70;7.00;;;;;;;;;;5091113;28;20399;-55
2021/04/11 01:34:11;;;;;;;7.67;6.87;;;;;;;;;;5091290;28;20878;-56
2021/04/11 01:36:38;;;;;;;10.10;7.70;;;;;;;;;;5090796;28;20438;-56
2021/04/11 01:39:06;;;;;;;8.23;6.73;;;;;;;;;;5090812;28;20423;-55
2021/04/11 01:41:35;;;;;;;8.13;6.10;;;;;;;;;;5091091;28;20471;-54
2021/04/11 01:44:01;;;;;;;9.27;6.90;;;;;;;;;;5090755;28;20407;-55
2021/04/11 01:46:27;;;;;;;8.30;7.17;;;;;;;;;;5090841;28;20835;-55
2021/04/11 01:48:53;;;;;;;13.00;6.83;;;;;;;;;;5090622;28;20481;-55
2021/04/11 01:51:21;;;;;;;7.23;6.53;;;;;;;;;;5090980;28;20403;-54
2021/04/11 01:53:48;;;;;;;7.67;6.93;;;;;;;;;;5090592;28;21150;-56
2021/04/11 01:56:15;;;;;;;8.70;6.73;;;;;;;;;;5090564;28;20404;-54
2021/04/11 01:58:41;;;;;;;8.47;6.67;;;;;;;;;;5090271;28;21142;-55
2021/04/11 02:01:24;;;;;;;7.93;6.60;;;;;;;;;;5072556;28;20795;-55
2021/04/11 02:03:54;;;;;;;8.17;6.80;;;;;;;;;;5090607;28;20466;-54
2021/04/11 02:06:21;;;;;;;8.73;6.60;;;;;;;;;;5090426;28;20405;-55
2021/04/11 02:08:53;;;;;;;9.10;6.30;;;;;;;;;;5090491;28;20508;-54
2021/04/11 02:11:20;;;;;;;7.80;6.47;;;;;;;;;;5090685;28;20425;-54
2021/04/11 02:13:46;;;;;;;6.53;5.73;;;;;;;;;;5090553;28;20395;-55
2021/04/11 02:16:13;;;;;;;7.30;6.50;;;;;;;;;;5090136;28;20491;-55
2021/04/11 02:18:39;;;;;;;6.90;6.30;;;;;;;;;;5090500;28;21013;-56
2021/04/11 02:21:08;;;;;;;9.57;6.63;;;;;;;;;;5090338;28;20407;-56
2021/04/11 02:23:34;;;;;;;6.33;5.83;;;;;;;;;;5090539;28;20918;-55
2021/04/11 02:26:00;;;;;;;7.13;5.80;;;;;;;;;;5090104;28;20486;-54
2021/04/11 02:28:27;;;;;;;6.63;6.00;;;;;;;;;;5090229;28;20605;-54
2021/04/11 02:30:55;;;;;;;10.50;5.87;;;;;;;;;;5094210;28;20419;-56
2021/04/11 02:33:21;;;;;;;7.13;5.97;;;;;;;;;;5094546;28;20399;-56
2021/04/11 02:35:47;;;;;;;7.07;6.20;;;;;;;;;;5094074;28;20402;-55
2021/04/11 02:38:14;;;;;;;8.20;6.47;;;;;;;;;;5094366;28;20446;-55
2021/04/11 02:40:42;;;;;;;9.70;7.13;;;;;;;;;;5094268;28;20402;-55
2021/04/11 02:43:09;;;;;;;6.60;6.03;;;;;;;;;;5094269;28;20918;-54
2021/04/11 02:45:38;;;;;;;7.77;6.57;;;;;;;;;;5094120;28;20426;-55
2021/04/11 02:48:04;;;;;;;6.77;6.17;;;;;;;;;;5094082;28;20905;-55
2021/04/11 02:50:31;;;;;;;7.63;6.83;;;;;;;;;;5094305;28;20396;-55
2021/04/11 02:53:00;;;;;;;12.10;7.00;;;;;;;;;;5094121;28;20399;-55
2021/04/11 02:55:27;;;;;;;7.90;7.10;;;;;;;;;;5093743;28;20404;-55
2021/04/11 02:57:57;;;;;;;7.77;6.53;;;;;;;;;;5093861;28;20498;-55
2021/04/11 03:00:24;;;;;;;11.40;6.97;;;;;;;;;;5094078;28;20406;-54
2021/04/11 03:02:51;;;;;;;7.67;6.87;;;;;;;;;;5094132;28;20769;-56
2021/04/11 03:05:19;;;;;;;8.10;6.70;;;;;;;;;;5093774;28;20457;-55
2021/04/11 03:07:46;;;;;;;10.67;7.00;;;;;;;;;;5093695;28;20434;-55
2021/04/11 03:10:16;;;;;;;8.70;7.80;;;;;;;;;;5093744;28;20999;-56
2021/04/11 03:12:43;;;;;;;7.97;7.20;;;;;;;;;;5093784;28;20738;-54
2021/04/11 03:15:10;;;;;;;7.70;6.90;;;;;;;;;;5093562;28;20398;-55
2021/04/11 03:17:36;;;;;;;9.57;7.00;;;;;;;;;;5093760;28;20407;-55
2021/04/11 03:20:05;;;;;;;8.30;7.43;;;;;;;;;;5093422;28;20828;-54
2021/04/11 03:22:31;;;;;;;8.67;7.77;;;;;;;;;;5093598;28;20411;-56
2021/04/11 03:24:57;;;;;;;8.90;8.07;;;;;;;;;;5093299;28;20426;-56
2021/04/11 03:27:40;;;;;;;10.67;9.60;;;;;;;;;;5093492;28;20399;-55
2021/04/11 03:30:09;;;;;;;22.67;16.53;;;;;;;;;;5093358;28;20462;-56
2021/04/11 03:32:49;;;;;;;23.97;17.57;;;;;;;;;;5093813;28;20880;-56
2021/04/11 03:35:18;;;;;;;31.73;20.30;;;;;;;;;;5093217;28;20771;-56
2021/04/11 03:37:44;;;;;;;34.67;20.90;;;;;;;;;;5075269;28;20408;-55
2021/04/11 03:40:12;;;;;;;30.83;21.23;;;;;;;;;;5092494;28;20481;-56
2021/04/11 03:42:42;;;;;;;31.03;20.30;;;;;;;;;;5092617;28;20399;-56
2021/04/11 03:45:08;;;;;;;23.77;15.73;;;;;;;;;;5092797;28;20397;-56
2021/04/11 03:47:40;;;;;;;24.27;15.67;;;;;;;;;;5093170;28;20902;-55
2021/04/11 03:50:15;;;;;;;24.03;15.37;;;;;;;;;;5092797;28;20447;-56
2021/04/11 03:52:43;;;;;;;21.27;14.67;;;;;;;;;;5093122;28;20395;-54
2021/04/11 03:55:12;;;;;;;22.03;14.77;;;;;;;;;;5092490;28;20407;-55
2021/04/11 03:57:48;;;;;;;12.43;9.47;;;;;;;;;;5092905;28;20426;-55
2021/04/11 04:00:16;;;;;;;11.00;8.73;;;;;;;;;;5092720;28;20970;-56
2021/04/11 04:02:44;;;;;;;9.53;7.80;;;;;;;;;;5093034;28;20403;-55
2021/04/11 04:05:12;;;;;;;6.63;6.03;;;;;;;;;;5092561;28;20450;-54
2021/04/11 04:07:58;;;;;;;9.80;7.70;;;;;;;;;;5092500;28;20429;-54
2021/04/11 04:10:27;;;;;;;7.77;6.97;;;;;;;;;;5092779;28;20402;-54
2021/04/11 04:12:56;;;;;;;6.17;5.57;;;;;;;;;;5092514;28;20393;-55
2021/04/11 04:15:28;;;;;;;6.83;6.20;;;;;;;;;;5092374;28;20400;-54
2021/04/11 04:18:15;;;;;;;7.40;5.90;;;;;;;;;;5092388;28;20875;-55
2021/04/11 04:20:50;;;;;;;7.90;7.10;;;;;;;;;;5092502;28;20476;-55
2021/04/11 04:23:27;;;;;;;7.87;7.03;;;;;;;;;;5092129;28;20393;-54
2021/04/11 04:26:02;;;;;;;9.10;7.40;;;;;;;;;;5092141;28;20397;-54
2021/04/11 04:28:28;;;;;;;10.83;8.20;;;;;;;;;;5073937;28;20464;-55
2021/04/11 04:31:05;;;;;;;10.30;8.60;;;;;;;;;;5092318;28;20420;-54
2021/04/11 04:33:49;;;;;;;10.10;8.40;;;;;;;;;;5092121;28;20412;-56
2021/04/11 04:36:26;;;;;;;8.53;7.60;;;;;;;;;;5091953;28;20915;-55
2021/04/11 04:39:10;;;;;;;13.03;9.10;;;;;;;;;;5092110;28;20852;-54
2021/04/11 04:41:42;;;;;;;11.70;8.73;;;;;;;;;;5091928;28;20426;-55
2021/04/11 04:44:18;;;;;;;13.52;8.93;;;;;;;;;;5091852;28;20171;-55
2021/04/11 04:46:50;;;;;;;11.77;9.30;;;;;;;;;;5092346;28;20212;-55
2021/04/11 04:49:25;;;;;;;12.50;9.30;;;;;;;;;;5091329;28;20500;-54
2021/04/11 04:51:54;;;;;;;10.57;7.80;;;;;;;;;;5091609;28;20421;-52
2021/04/11 04:54:23;;;;;;;10.00;8.20;;;;;;;;;;5091536;28;20956;-55
2021/04/11 04:56:56;;;;;;;12.57;8.80;;;;;;;;;;5091775;28;20809;-52
2021/04/11 04:59:24;;;;;;;9.77;7.70;;;;;;;;;;5091593;28;20303;-55
2021/04/11 05:02:03;;;;;;;9.40;7.60;;;;;;;;;;5091943;28;20452;-52
2021/04/11 05:04:30;;;;;;;13.87;10.17;;;;;;;;;;5091653;28;20404;-56
2021/04/11 05:07:03;;;;;;;9.80;8.73;;;;;;;;;;5091332;28;20884;-52
2021/04/11 05:09:40;;;;;;;11.20;9.07;;;;;;;;;;5091378;28;20502;-55
2021/04/11 05:12:12;;;;;;;12.27;9.43;;;;;;;;;;5091666;28;20398;-52
2021/04/11 05:14:42;;;;;;;16.03;10.90;;;;;;;;;;5091494;28;20394;-52
2021/04/11 05:17:16;;;;;;;15.48;10.45;;;;;;;;;;5090980;28;20771;-52
2021/04/11 05:19:47;;;;;;;13.18;9.98;;;;;;;;;;5091192;28;20221;-52
2021/04/11 05:22:16;;;;;;;15.70;10.90;;;;;;;;;;5091377;28;20179;-55
2021/04/11 05:24:44;;;;;;;15.60;11.00;;;;;;;;;;5091218;28;20394;-52
2021/04/11 05:27:14;;;;;;;20.60;10.88;;;;;;;;;;5090846;28;20772;-52
2021/04/11 05:29:49;;;;;;;17.95;12.65;;;;;;;;;;5091047;28;20198;-52
2021/04/11 05:32:15;;;;;;;19.08;13.82;;;;;;;;;;5091035;28;20172;-52
2021/04/11 05:34:42;;;;;;;22.88;15.43;;;;;;;;;;5091129;28;20179;-54
2021/04/11 05:37:16;;;;;;;23.30;14.70;;;;;;;;;;5090712;28;20198;-54
2021/04/11 05:40:01;;;;;;;21.25;12.95;;;;;;;;;;5090958;28;20419;-52
2021/04/11 05:42:46;;;;;;;22.73;13.95;;;;;;;;;;5090562;28;20165;-51
2021/04/11 05:45:18;;;;;;;19.25;12.73;;;;;;;;;;5090751;28;20577;-52
2021/04/11 05:47:48;;;;;;;21.23;12.90;;;;;;;;;;5090767;28;20220;-54
2021/04/11 05:50:41;;;;;;;20.27;12.75;;;;;;;;;;5090767;28;20288;-54
2021/04/11 05:53:12;;;;;;;20.40;13.77;;;;;;;;;;5059607;28;20173;-55
2021/04/11 05:55:40;;;;;;;20.92;13.23;;;;;;;;;;5090510;28;20256;-52
2021/04/11 05:58:16;;;;;;;18.95;11.85;;;;;;;;;;5090522;28;20162;-52
2021/04/11 06:00:45;;;;;;;20.98;13.35;;;;;;;;;;5090760;28;20166;-52
2021/04/11 06:03:14;;;;;;;20.38;13.60;;;;;;;;;;5089360;28;20166;-52
2021/04/11 06:05:59;;;;;;;20.08;14.00;;;;;;;;;;5089518;28;20187;-54
2021/04/11 06:08:36;;;;;;;21.67;14.82;;;;;;;;;;5089601;28;21131;-55
2021/04/11 06:11:25;;;;;;;21.25;14.60;;;;;;;;;;5072176;28;20169;-52
2021/04/11 06:13:59;;;;;;;21.75;14.77;;;;;;;;;;5090082;28;20237;-52
2021/04/11 06:16:26;;;;;;;22.70;16.38;;;;;;;;;;5089741;28;20258;-53
2021/04/11 06:18:53;;;;;;;25.25;16.30;;;;;;;;;;5089874;28;20619;-54
2021/04/11 06:21:29;;;;;;;21.92;15.50;;;;;;;;;;5071700;28;20633;-53
2021/04/11 06:24:02;;;;;;;24.55;15.68;;;;;;;;;;5089760;28;20248;-55
2021/04/11 06:26:28;;;;;;;24.20;15.35;;;;;;;;;;5090271;28;20193;-53
2021/04/11 06:28:58;;;;;;;24.58;16.27;;;;;;;;;;5090367;28;20208;-53
2021/04/11 06:31:27;;;;;;;27.52;16.95;;;;;;;;;;5090525;28;20565;-53
2021/04/11 06:33:56;;;;;;;27.40;16.25;;;;;;;;;;5090591;28;20165;-54
2021/04/11 06:36:25;;;;;;;27.65;17.38;;;;;;;;;;5090029;28;20170;-55
2021/04/11 06:38:56;;;;;;;29.63;17.98;;;;;;;;;;5090251;28;20192;-54
2021/04/11 06:41:22;;;;;;;30.02;18.80;;;;;;;;;;5090330;28;20633;-53
2021/04/11 06:43:57;;;;;;;30.42;19.00;;;;;;;;;;5090545;28;20581;-53
2021/04/11 06:46:32;;;;;;;34.38;20.30;;;;;;;;;;5090091;28;20660;-54
2021/04/11 06:49:13;;;;;;;34.90;20.00;;;;;;;;;;5090283;28;20575;-53
2021/04/11 06:51:58;;;;;;;38.45;20.45;;;;;;;;;;5090371;28;20166;-53
2021/04/11 06:54:43;;;;;;;32.90;19.35;;;;;;;;;;5090557;28;20708;-53
2021/04/11 06:57:19;;;;;;;33.33;19.17;;;;;;;;;;5090103;28;20172;-52
2021/04/11 06:59:54;;;;;;;31.88;19.42;;;;;;;;;;5090477;28;20204;-52
2021/04/11 07:02:39;;;;;;;32.75;20.13;;;;;;;;;;5090363;28;20215;-53
2021/04/11 07:05:24;;;;;;;32.50;19.55;;;;;;;;;;5089603;28;20256;-52
2021/04/11 07:07:49;;;;;;;33.53;20.40;;;;;;;;;;5089254;28;20172;-57
2021/04/11 07:10:27;;;;;;;36.03;20.70;;;;;;;;;;5089606;28;20201;-55
2021/04/11 07:13:12;;;;;;;35.92;21.45;;;;;;;;;;5089419;28;20402;-53
2021/04/11 07:15:48;;;;;;;40.08;21.17;;;;;;;;;;5090715;28;20225;-54
2021/04/11 07:18:23;;;;;;;39.38;22.25;;;;;;;;;;5093015;28;20192;-56
2021/04/11 07:21:15;;;;;;;36.40;21.30;;;;;;;;;;5093087;28;20200;-52
2021/04/11 07:23:59;;;;;;;36.53;20.98;;;;;;;;;;5092687;28;20253;-53
2021/04/11 07:26:34;;;;;;;41.83;22.85;;;;;;;;;;5092719;28;20565;-53
2021/04/11 07:29:06;;;;;;;48.72;23.60;;;;;;;;;;5092697;28;20768;-55
2021/04/11 07:31:44;;;;;;;39.97;22.00;;;;;;;;;;5092518;28;20164;-56
2021/04/11 07:34:19;;;;;;;36.33;20.15;;;;;;;;;;5092648;28;20176;-52
2021/04/11 07:36:48;;;;;;;31.85;18.77;;;;;;;;;;5092210;28;20165;-56
2021/04/11 07:39:14;;;;;;;32.65;18.95;;;;;;;;;;5092723;28;20209;-52
2021/04/11 07:41:47;;;;;;;27.70;18.57;;;;;;;;;;5093321;28;20220;-53
2021/04/11 07:44:13;;;;;;;25.20;16.58;;;;;;;;;;5092971;28;20404;-55
2021/04/11 07:46:45;;;;;;;29.37;19.03;;;;;;;;;;5089268;28;20165;-56
2021/04/11 07:49:17;;;;;;;30.15;18.67;;;;;;;;;;5071873;28;20463;-55
2021/04/11 07:51:43;;;;;;;35.67;21.65;;;;;;;;;;5072970;28;20520;-52
2021/04/11 07:54:22;;;;;;;34.97;19.77;;;;;;;;;;5072461;28;20177;-53
2021/04/11 07:56:57;;;;;;;32.55;20.20;;;;;;;;;;5072560;28;20763;-55
2021/04/11 07:59:39;;;;;;;32.60;20.38;;;;;;;;;;5072365;28;20691;-55
2021/04/11 08:02:24;;;;;;;34.60;21.70;;;;;;;;;;5072646;28;20170;-54
2021/04/11 08:05:09;;;;;;;37.55;19.88;;;;;;;;;;5072791;28;20596;-53
2021/04/11 08:07:49;;;;;;;30.08;17.73;;;;;;;;;;5072278;28;20231;-55
2021/04/11 08:10:19;;;;;;;25.70;17.27;;;;;;;;;;5072208;28;20186;-56
2021/04/11 08:12:48;;;;;;;31.42;17.73;;;;;;;;;;5072109;28;20166;-55
2021/04/11 08:15:32;;;;;;;29.77;18.10;;;;;;;;;;5072028;28;20245;-52
2021/04/11 08:18:14;;;;;;;24.75;16.50;;;;;;;;;;5072091;28;20164;-53
2021/04/11 08:20:40;;;;;;;29.30;17.70;;;;;;;;;;5072134;28;20186;-52
2021/04/11 08:23:15;;;;;;;26.27;18.03;;;;;;;;;;5071852;28;20641;-53
2021/04/11 08:25:51;;;;;;;24.85;16.33;;;;;;;;;;5071832;28;20789;-56
2021/04/11 08:28:36;;;;;;;23.70;19.00;;;;;;;;;;5071133;28;20258;-56
2021/04/11 08:31:06;;;;;;;27.52;19.20;;;;;;;;;;5072045;28;20215;-53
2021/04/11 08:33:32;;;;;;;27.35;18.85;;;;;;;;;;5072077;28;20158;-52
2021/04/11 08:36:04;;;;;;;27.80;19.23;;;;;;;;;;5071814;28;20579;-52
2021/04/11 08:38:33;;;;;;;24.38;18.13;;;;;;;;;;5071644;28;20431;-52
2021/04/11 08:40:59;;;;;;;27.88;18.95;;;;;;;;;;5072021;28;20536;-52
2021/04/11 08:43:37;;;;;;;22.85;17.08;;;;;;;;;;5069921;28;20209;-56
2021/04/11 08:46:12;;;;;;;24.52;18.05;;;;;;;;;;5071341;28;20173;-52
2021/04/11 08:48:44;;;;;;;24.75;17.30;;;;;;;;;;5071534;28;20221;-52
2021/04/11 08:51:13;;;;;;;23.40;15.25;;;;;;;;;;5071689;28;20166;-53
2021/04/11 08:53:58;;;;;;;26.90;18.30;;;;;;;;;;5071889;28;20162;-52
2021/04/11 08:56:36;;;;;;;27.95;18.17;;;;;;;;;;5071187;28;20543;-55
2021/04/11 08:59:08;;;;;;;26.15;16.30;;;;;;;;;;5071364;28;20230;-55
2021/04/11 09:01:49;;;;;;;23.50;14.63;;;;;;;;;;5071299;28;20174;-52
2021/04/11 09:04:21;;;;;;;25.48;16.42;;;;;;;;;;5071047;28;20166;-53
2021/04/11 09:06:47;;;;;;;23.73;16.48;;;;;;;;;;5070904;28;20196;-52
2021/04/11 09:09:28;;;;;;;24.70;16.50;;;;;;;;;;5070945;28;20205;-53
2021/04/11 09:11:57;;;;;;;26.58;15.98;;;;;;;;;;5071104;28;20660;-52
2021/04/11 09:14:49;;;;;;;22.73;15.00;;;;;;;;;;5071078;28;20178;-53
2021/04/11 09:17:30;;;;;;;23.27;15.88;;;;;;;;;;5070670;28;20166;-53
2021/04/11 09:20:15;;;;;;;18.67;13.55;;;;;;;;;;5052893;28;20201;-52
2021/04/11 09:23:07;;;;;;;22.25;14.27;;;;;;;;;;5070668;28;20166;-56
2021/04/11 09:25:35;;;;;;;17.30;12.45;;;;;;;;;;5066318;28;20261;-56
2021/04/11 09:28:10;;;;;;;11.30;9.23;;;;;;;;;;5070659;28;20216;-53
2021/04/11 09:31:12;;;;;;;8.07;6.50;;;;;;;;;;5070726;28;20174;-53
2021/04/11 09:33:46;;;;;;;7.32;5.80;;;;;;;;;;5019014;28;20179;-53
2021/04/11 09:36:30;;;;;;;6.40;5.90;;;;;;;;;;5081681;28;20177;-53
2021/04/11 09:39:05;;;;;;;5.07;4.68;;;;;;;;;;5089946;28;20700;-52
2021/04/11 09:41:54;;;;;;;5.32;4.82;;;;;;;;;;5090934;28;20165;-52
2021/04/11 09:44:42;;;;;;;6.55;5.60;;;;;;;;;;5090687;28;20641;-53
2021/04/11 09:47:20;;;;;;;8.90;7.20;;;;;;;;;;5090711;28;20170;-53
2021/04/11 09:49:56;;;;;;;9.75;7.38;;;;;;;;;;5090884;28;20254;-55
2021/04/11 09:52:22;;;;;;;9.13;7.85;;;;;;;;;;5090783;28;20169;-53
2021/04/11 09:54:57;;;;;;;13.00;7.90;;;;;;;;;;5090558;28;20217;-53
2021/04/11 09:57:41;;;;;;;9.30;6.35;;;;;;;;;;5090651;28;20910;-56
2021/04/11 10:00:12;;;;;;;7.80;7.05;;;;;;;;;;5090327;28;20201;-53
2021/04/11 10:02:47;;;;;;;9.18;7.20;;;;;;;;;;5090419;28;20533;-53
2021/04/11 10:05:17;;;;;;;7.18;6.05;;;;;;;;;;5090285;28;20551;-56
2021/04/11 10:07:54;;;;;;;8.07;7.00;;;;;;;;;;5090657;28;20173;-52
2021/04/11 10:10:20;;;;;;;7.10;6.40;;;;;;;;;;5090396;28;20201;-53
2021/04/11 10:12:47;;;;;;;10.90;7.37;;;;;;;;;;5090768;28;20176;-53
2021/04/11 10:15:30;;;;;;;7.90;7.10;;;;;;;;;;5090201;28;20406;-52
2021/04/11 10:18:14;;;;;;;7.78;6.78;;;;;;;;;;5090573;28;20184;-55
2021/04/11 10:20:57;;;;;;;6.85;6.15;;;;;;;;;;5090518;28;20577;-53
2021/04/11 10:23:38;;;;;;;4.60;4.30;;;;;;;;;;5090557;28;20206;-52
2021/04/11 10:26:08;;;;;;;4.38;4.07;;;;;;;;;;5090481;28;20170;-55
2021/04/11 10:28:43;;;;;;;4.05;3.78;;;;;;;;;;5090386;28;20236;-56
2021/04/11 10:31:10;;;;;;;3.60;3.35;;;;;;;;;;5090680;28;20254;-53
2021/04/11 10:34:02;;;;;;;4.03;3.72;;;;;;;;;;5090704;28;20166;-55
2021/04/11 10:36:30;;;;;;;3.78;3.58;;;;;;;;;;5073965;28;20438;-55
2021/04/11 10:39:01;;;;;;;4.05;3.75;;;;;;;;;;5090224;28;20193;-52
2021/04/11 10:41:30;;;;;;;4.72;4.32;;;;;;;;;;5090326;28;20584;-53
2021/04/11 10:44:05;;;;;;;3.92;3.63;;;;;;;;;;5090227;28;20177;-52
2021/04/11 10:46:40;;;;;;;3.72;3.35;;;;;;;;;;5090478;28;20193;-55
2021/04/11 10:49:12;;;;;;;3.15;2.95;;;;;;;;;;5090313;28;20567;-55
2021/04/11 10:51:41;;;;;;;3.70;2.95;;;;;;;;;;5093494;28;20194;-56
2021/04/11 10:54:26;;;;;;;3.75;3.45;;;;;;;;;;5093933;28;20221;-55
2021/04/11 10:56:58;;;;;;;6.13;3.22;;;;;;;;;;5093825;28;20200;-55
2021/04/11 10:59:42;;;;;;;3.53;3.22;;;;;;;;;;5093595;28;20197;-55
2021/04/11 11:02:11;;;;;;;3.33;3.10;;;;;;;;;;5094119;28;20176;-55
2021/04/11 11:04:40;;;;;;;3.72;3.47;;;;;;;;;;5094256;28;20176;-55
2021/04/11 11:07:06;;;;;;;3.72;3.45;;;;;;;;;;5093256;28;20669;-55
2021/04/11 11:09:35;;;;;;;3.97;3.53;;;;;;;;;;5093642;28;20247;-55
2021/04/11 11:12:19;;;;;;;3.47;3.25;;;;;;;;;;5093576;28;20396;-55
2021/04/11 11:14:58;;;;;;;5.22;4.18;;;;;;;;;;5093800;28;20157;-56
2021/04/11 11:17:36;;;;;;;4.47;4.07;;;;;;;;;;5093469;28;20161;-55
2021/04/11 11:20:17;;;;;;;5.05;3.70;;;;;;;;;;5093798;28;20659;-56
2021/04/11 11:23:00;;;;;;;4.72;4.43;;;;;;;;;;5093596;28;20168;-55
2021/04/11 11:25:31;;;;;;;4.20;3.90;;;;;;;;;;5093317;28;20276;-55
2021/04/11 11:28:10;;;;;;;4.00;3.70;;;;;;;;;;5093216;28;20721;-56
2021/04/11 11:30:45;;;;;;;7.35;3.90;;;;;;;;;;5093295;28;20188;-55
2021/04/11 11:33:29;;;;;;;3.85;3.45;;;;;;;;;;5092108;28;20644;-55
2021/04/11 11:36:01;;;;;;;4.35;4.05;;;;;;;;;;5093431;28;20440;-55
2021/04/11 11:38:33;;;;;;;4.53;4.13;;;;;;;;;;5092652;28;20288;-55
2021/04/11 11:41:01;;;;;;;4.15;3.85;;;;;;;;;;5093288;28;20166;-56
2021/04/11 11:43:33;;;;;;;4.05;3.75;;;;;;;;;;5092991;28;20210;-55
2021/04/11 11:46:05;;;;;;;3.55;3.25;;;;;;;;;;5092631;28;20166;-55
2021/04/11 11:48:36;;;;;;;4.03;3.63;;;;;;;;;;5092930;28;20586;-56
2021/04/11 11:51:22;;;;;;;3.65;3.35;;;;;;;;;;5092239;28;20162;-55
2021/04/11 11:54:08;;;;;;;3.83;3.53;;;;;;;;;;5092919;28;20204;-55
2021/04/11 11:56:37;;;;;;;4.30;4.00;;;;;;;;;;5092440;28;20184;-55
2021/04/11 11:59:06;;;;;;;3.90;3.60;;;;;;;;;;5092722;28;20201;-55
2021/04/11 12:01:39;;;;;;;3.67;3.38;;;;;;;;;;5091628;28;20281;-55
2021/04/11 12:04:25;;;;;;;3.20;3.00;;;;;;;;;;5093069;28;20189;-55
2021/04/11 12:06:52;;;;;;;3.95;3.33;;;;;;;;;;5075019;28;20554;-55
2021/04/11 12:09:25;;;;;;;3.40;3.20;;;;;;;;;;5092551;28;20201;-55
2021/04/11 12:12:10;;;;;;;5.40;4.35;;;;;;;;;;5092588;28;20166;-55
2021/04/11 12:14:36;;;;;;;4.90;4.50;;;;;;;;;;5092545;28;20192;-55
2021/04/11 12:17:20;;;;;;;5.60;4.37;;;;;;;;;;5092272;28;20645;-56
2021/04/11 12:19:52;;;;;;;4.28;3.97;;;;;;;;;;5092475;28;20970;-55
2021/04/11 12:22:32;;;;;;;7.32;4.38;;;;;;;;;;5092324;28;20177;-56
2021/04/11 12:25:05;;;;;;;7.10;4.90;;;;;;;;;;5092474;28;20176;-55
2021/04/11 12:27:34;;;;;;;7.40;4.93;;;;;;;;;;5092540;28;20396;-55
2021/04/11 12:30:01;;;;;;;5.22;4.82;;;;;;;;;;5092398;28;20202;-55
2021/04/11 12:32:30;;;;;;;5.43;4.93;;;;;;;;;;5092514;28;20156;-54
2021/04/11 12:34:59;;;;;;;6.37;5.77;;;;;;;;;;5092102;28;20416;-56
2021/04/11 12:37:32;;;;;;;5.35;4.95;;;;;;;;;;5091934;28;20392;-55
2021/04/11 12:40:07;;;;;;;6.10;5.33;;;;;;;;;;5092004;28;20190;-55
2021/04/11 12:42:40;;;;;;;4.93;4.53;;;;;;;;;;5092231;28;21109;-56
2021/04/11 12:45:20;;;;;;;7.20;4.50;;;;;;;;;;5091529;28;20396;-55
2021/04/11 12:47:59;;;;;;;5.97;5.30;;;;;;;;;;5092158;28;20174;-56
2021/04/11 12:50:28;;;;;;;5.07;4.60;;;;;;;;;;5091716;28;20262;-56
2021/04/11 12:52:58;;;;;;;4.70;4.30;;;;;;;;;;5091794;28;20245;-55
2021/04/11 12:55:27;;;;;;;4.85;3.97;;;;;;;;;;5091628;28;20166;-55
2021/04/11 12:57:56;;;;;;;5.15;4.72;;;;;;;;;;5091431;28;20897;-55
2021/04/11 13:00:25;;;;;;;3.88;3.58;;;;;;;;;;5091677;28;20179;-55
2021/04/11 13:02:54;;;;;;;3.38;3.17;;;;;;;;;;5091493;28;20179;-55
2021/04/11 13:05:41;;;;;;;5.70;3.45;;;;;;;;;;5091400;28;20215;-55
2021/04/11 13:08:26;;;;;;;3.80;3.15;;;;;;;;;;5091208;28;20273;-55
2021/04/11 13:10:55;;;;;;;4.60;3.40;;;;;;;;;;5091497;28;20175;-55
2021/04/11 13:13:31;;;;;;;4.17;3.77;;;;;;;;;;5091149;28;20413;-55
2021/04/11 13:15:57;;;;;;;4.75;3.90;;;;;;;;;;5091144;28;20464;-55
2021/04/11 13:18:32;;;;;;;4.20;3.80;;;;;;;;;;5091146;28;20211;-55
2021/04/11 13:21:10;;;;;;;3.87;3.67;;;;;;;;;;5090380;28;20403;-56
2021/04/11 13:23:42;;;;;;;5.50;3.70;;;;;;;;;;5091007;28;20493;-55
2021/04/11 13:26:12;;;;;;;4.03;3.73;;;;;;;;;;5091230;28;20477;-56
2021/04/11 13:28:46;;;;;;;5.00;4.13;;;;;;;;;;5091064;28;20804;-55
2021/04/11 13:31:15;;;;;;;5.13;4.00;;;;;;;;;;5091391;28;20399;-55
2021/04/11 13:33:47;;;;;;;4.30;3.60;;;;;;;;;;5091001;28;20413;-55
2021/04/11 13:36:25;;;;;;;6.00;4.00;;;;;;;;;;5090619;28;20479;-55
2021/04/11 13:38:55;;;;;;;4.70;4.30;;;;;;;;;;5090946;28;20519;-55
2021/04/11 13:41:42;;;;;;;5.53;3.58;;;;;;;;;;5090740;28;20473;-56
2021/04/11 13:44:08;;;;;;;3.77;3.50;;;;;;;;;;5091026;28;20245;-55
2021/04/11 13:46:34;;;;;;;5.18;4.28;;;;;;;;;;5090374;28;20396;-55
2021/04/11 13:49:06;;;;;;;9.00;4.90;;;;;;;;;;5090859;28;20550;-56
2021/04/11 13:51:35;;;;;;;6.07;4.43;;;;;;;;;;5090561;28;20413;-56
2021/04/11 13:54:20;;;;;;;4.63;4.23;;;;;;;;;;5090823;28;20410;-55
2021/04/11 13:56:49;;;;;;;4.43;4.13;;;;;;;;;;5090441;28;20428;-54
2021/04/11 13:59:18;;;;;;;5.13;4.73;;;;;;;;;;5090516;28;20436;-55
2021/04/11 14:01:49;;;;;;;5.90;5.20;;;;;;;;;;5090867;28;20428;-55
2021/04/11 14:04:15;;;;;;;6.05;5.55;;;;;;;;;;5090573;28;20163;-56
2021/04/11 14:06:49;;;;;;;7.93;4.73;;;;;;;;;;5090352;28;20219;-55
2021/04/11 14:09:23;;;;;;;4.60;4.20;;;;;;;;;;5090357;28;20466;-56
2021/04/11 14:11:52;;;;;;;6.45;4.22;;;;;;;;;;5090682;28;20400;-56
2021/04/11 14:14:26;;;;;;;5.53;4.90;;;;;;;;;;5090449;28;20157;-56
2021/04/11 14:16:55;;;;;;;8.27;5.70;;;;;;;;;;5090332;28;20398;-55
2021/04/11 14:19:37;;;;;;;8.52;4.88;;;;;;;;;;5090317;28;20436;-55
2021/04/11 14:22:23;;;;;;;7.75;5.30;;;;;;;;;;5090690;28;20625;-56
2021/04/11 14:24:52;;;;;;;5.60;5.10;;;;;;;;;;5090621;28;20589;-56
2021/04/11 14:27:22;;;;;;;5.03;4.63;;;;;;;;;;5094243;28;20658;-56
2021/04/11 14:29:48;;;;;;;5.10;4.60;;;;;;;;;;5094315;28;20205;-55
2021/04/11 14:32:17;;;;;;;5.30;4.90;;;;;;;;;;5094532;28;20771;-56
2021/04/11 14:34:49;;;;;;;5.60;5.10;;;;;;;;;;5094214;28;20393;-56
2021/04/11 14:37:23;;;;;;;5.55;4.82;;;;;;;;;;5094788;28;20460;-56
2021/04/11 14:39:59;;;;;;;5.45;4.95;;;;;;;;;;5094166;28;20277;-55
2021/04/11 14:42:28;;;;;;;5.63;5.10;;;;;;;;;;5094384;28;20181;-55
2021/04/11 14:45:06;;;;;;;4.67;4.27;;;;;;;;;;5094081;28;20418;-55
2021/04/11 14:47:40;;;;;;;5.70;3.97;;;;;;;;;;5094094;28;20415;-55
2021/04/11 14:50:14;;;;;;;4.00;3.57;;;;;;;;;;5094043;28;20494;-55
2021/04/11 14:52:53;;;;;;;5.50;5.10;;;;;;;;;;5093871;28;20401;-55
2021/04/11 14:55:32;;;;;;;4.70;3.93;;;;;;;;;;5094089;28;20398;-55
2021/04/11 14:58:11;;;;;;;6.20;3.90;;;;;;;;;;5093828;28;20397;-55
2021/04/11 15:01:01;;;;;;;4.93;4.07;;;;;;;;;;5094150;28;20402;-55
2021/04/11 15:03:42;;;;;;;4.20;3.80;;;;;;;;;;5081362;28;20191;-55
2021/04/11 15:06:21;;;;;;;4.43;4.03;;;;;;;;;;5094263;28;20848;-56